createdAt,value
2022-12-31T00:01:20.121Z,22.40
2022-12-31T00:03:48.241Z,22.30
2022-12-31T00:06:22.033Z,22.30
2022-12-31T00:08:51.149Z,22.30
2022-12-31T00:11:19.944Z,22.30
2022-12-31T00:13:49.898Z,22.30
2022-12-31T00:16:21.335Z,22.30
2022-12-31T00:18:51.320Z,22.30
2022-12-31T00:21:21.791Z,22.20
2022-12-31T00:23:50.440Z,22.20
2022-12-31T00:26:21.069Z,22.20
2022-12-31T00:28:49.601Z,22.20
2022-12-31T00:31:19.586Z,22.20
2022-12-31T00:33:47.939Z,22.20
2022-12-31T00:36:17.590Z,22.30
2022-12-31T00:38:48.730Z,22.30
2022-12-31T00:41:18.345Z,22.30
2022-12-31T00:43:47.070Z,22.40
2022-12-31T00:46:15.888Z,22.40
2022-12-31T00:48:44.257Z,22.40
2022-12-31T00:51:15.003Z,22.40
2022-12-31T00:53:43.593Z,22.40
2022-12-31T00:56:15.488Z,22.40
2022-12-31T00:58:43.989Z,22.40
2022-12-31T01:01:13.380Z,22.40
2022-12-31T01:03:41.557Z,22.40
2022-12-31T01:06:09.982Z,22.40
2022-12-31T01:08:38.362Z,22.40
2022-12-31T01:11:23.082Z,22.40
2022-12-31T01:13:54.781Z,22.40
2022-12-31T01:16:24.747Z,22.40
2022-12-31T01:18:54.663Z,22.40
2022-12-31T01:21:23.179Z,22.40
2022-12-31T01:23:51.295Z,22.40
2022-12-31T01:26:20.120Z,22.40
2022-12-31T01:28:49.112Z,22.40
2022-12-31T01:31:20.686Z,22.40
2022-12-31T01:33:49.525Z,22.40
2022-12-31T01:36:25.299Z,22.40
2022-12-31T01:38:54.815Z,22.30
2022-12-31T01:41:27.073Z,22.40
2022-12-31T01:43:58.723Z,22.30
2022-12-31T01:46:35.255Z,22.30
2022-12-31T01:49:09.670Z,22.30
2022-12-31T01:51:38.986Z,22.30
2022-12-31T01:54:10.471Z,22.30
2022-12-31T01:56:40.751Z,22.30
2022-12-31T01:59:11.962Z,22.40
2022-12-31T02:01:41.606Z,22.40
2022-12-31T02:04:12.298Z,22.40
2022-12-31T02:06:45.586Z,22.40
2022-12-31T02:09:13.906Z,22.50
2022-12-31T02:11:42.005Z,22.50
2022-12-31T02:14:13.318Z,22.50
2022-12-31T02:16:53.480Z,22.50
2022-12-31T02:20:10.127Z,22.50
2022-12-31T02:22:59.866Z,22.50
2022-12-31T02:25:51.127Z,22.50
2022-12-31T02:28:34.459Z,22.50
2022-12-31T02:31:09.749Z,22.50
2022-12-31T02:33:42.323Z,22.40
2022-12-31T02:36:15.915Z,22.40
2022-12-31T02:38:47.197Z,22.40
2022-12-31T02:41:36.966Z,22.40
2022-12-31T02:44:25.264Z,22.40
2022-12-31T02:47:15.471Z,22.40
2022-12-31T02:49:51.172Z,22.40
2022-12-31T02:52:28.407Z,22.40
2022-12-31T02:55:05.473Z,22.40
2022-12-31T02:57:41.089Z,22.40
2022-12-31T03:00:30.583Z,22.40
2022-12-31T03:03:01.610Z,22.40
2022-12-31T03:05:32.636Z,22.40
2022-12-31T03:08:00.848Z,22.40
2022-12-31T03:10:29.040Z,22.40
2022-12-31T03:12:56.198Z,22.40
2022-12-31T03:15:26.167Z,22.40
2022-12-31T03:18:01.837Z,22.50
2022-12-31T03:20:50.581Z,22.50
2022-12-31T03:23:26.379Z,22.50
2022-12-31T03:25:54.982Z,22.50
2022-12-31T03:28:27.041Z,22.50
2022-12-31T03:30:57.175Z,22.50
2022-12-31T03:33:27.426Z,22.50
2022-12-31T03:35:55.537Z,22.50
2022-12-31T03:38:23.693Z,22.50
2022-12-31T03:40:53.913Z,22.50
2022-12-31T03:43:22.132Z,22.50
2022-12-31T03:45:52.494Z,22.50
2022-12-31T03:48:22.059Z,22.50
2022-12-31T03:50:51.774Z,22.50
2022-12-31T03:53:20.176Z,22.50
2022-12-31T03:55:52.166Z,22.50
2022-12-31T03:58:20.326Z,22.40
2022-12-31T04:00:48.411Z,22.40
2022-12-31T04:03:19.431Z,22.40
2022-12-31T04:05:54.892Z,22.40
2022-12-31T04:08:23.219Z,22.40
2022-12-31T04:10:51.350Z,22.40
2022-12-31T04:13:19.481Z,22.40
2022-12-31T04:15:50.855Z,22.40
2022-12-31T04:18:18.989Z,22.40
2022-12-31T04:20:47.062Z,22.50
2022-12-31T04:23:16.610Z,22.50
2022-12-31T04:25:44.832Z,22.50
2022-12-31T04:28:12.975Z,22.50
2022-12-31T04:30:41.628Z,22.60
2022-12-31T04:33:09.752Z,22.60
2022-12-31T04:35:37.878Z,22.60
2022-12-31T04:38:06.097Z,22.60
2022-12-31T04:40:35.577Z,22.60
2022-12-31T04:43:03.639Z,22.60
2022-12-31T04:45:31.853Z,22.60
2022-12-31T04:47:59.957Z,22.50
2022-12-31T04:50:28.085Z,22.50
2022-12-31T04:52:56.201Z,22.50
2022-12-31T04:55:24.288Z,22.50
2022-12-31T04:57:53.796Z,22.50
2022-12-31T05:00:22.009Z,22.50
2022-12-31T05:02:50.331Z,22.50
2022-12-31T05:05:18.670Z,22.50
2022-12-31T05:07:46.774Z,22.50
2022-12-31T05:10:14.939Z,22.50
2022-12-31T05:12:43.056Z,22.50
2022-12-31T05:15:12.701Z,22.50
2022-12-31T05:17:40.772Z,22.50
2022-12-31T05:20:09.647Z,22.50
2022-12-31T05:22:37.778Z,22.50
2022-12-31T05:25:06.822Z,22.50
2022-12-31T05:27:35.579Z,22.50
2022-12-31T05:30:03.711Z,22.50
2022-12-31T05:32:33.544Z,22.50
2022-12-31T05:35:01.902Z,22.60
2022-12-31T05:37:31.007Z,22.60
2022-12-31T05:39:59.147Z,22.60
2022-12-31T05:42:27.755Z,22.70
2022-12-31T05:44:55.875Z,22.70
2022-12-31T05:47:24.027Z,22.80
2022-12-31T05:49:53.557Z,22.80
2022-12-31T05:52:22.223Z,22.80
2022-12-31T05:54:50.333Z,22.80
2022-12-31T05:57:18.403Z,22.80
2022-12-31T05:59:46.507Z,22.80
2022-12-31T06:02:14.685Z,22.80
2022-12-31T06:04:42.826Z,22.80
2022-12-31T06:07:12.350Z,22.70
2022-12-31T06:09:40.441Z,22.70
2022-12-31T06:12:09.130Z,22.70
2022-12-31T06:14:42.224Z,22.70
2022-12-31T06:17:13.582Z,22.70
2022-12-31T06:19:41.709Z,22.70
2022-12-31T06:22:09.824Z,22.60
2022-12-31T06:24:39.288Z,22.60
2022-12-31T06:27:07.366Z,22.60
2022-12-31T06:29:35.466Z,22.60
2022-12-31T06:32:03.903Z,22.50
2022-12-31T06:34:32.171Z,22.50
2022-12-31T06:37:00.532Z,22.50
2022-12-31T06:39:28.673Z,22.50
2022-12-31T06:41:58.146Z,22.50
2022-12-31T06:44:26.282Z,22.50
2022-12-31T06:46:54.441Z,22.40
2022-12-31T06:49:22.639Z,22.40
2022-12-31T06:51:50.750Z,22.40
2022-12-31T06:54:18.909Z,22.40
2022-12-31T06:56:47.536Z,22.40
2022-12-31T06:59:25.850Z,22.40
2022-12-31T07:02:19.532Z,22.50
2022-12-31T07:05:06.471Z,22.50
2022-12-31T07:07:39.763Z,22.50
2022-12-31T07:10:22.775Z,22.60
2022-12-31T07:13:20.126Z,22.60
2022-12-31T07:16:03.849Z,22.60
2022-12-31T07:18:40.565Z,22.70
2022-12-31T07:21:13.880Z,22.70
2022-12-31T07:23:42.720Z,22.70
2022-12-31T07:26:22.699Z,22.70
2022-12-31T07:29:01.559Z,22.70
2022-12-31T07:31:40.038Z,22.70
2022-12-31T07:34:20.516Z,22.70
2022-12-31T07:37:00.774Z,22.70
2022-12-31T07:39:38.787Z,22.70
2022-12-31T07:42:15.223Z,22.60
2022-12-31T07:44:59.604Z,22.60
2022-12-31T07:47:30.007Z,22.60
2022-12-31T07:49:59.137Z,22.60
2022-12-31T07:52:27.857Z,22.60
2022-12-31T07:54:56.131Z,22.60
2022-12-31T07:57:26.296Z,22.50
2022-12-31T08:00:06.033Z,22.50
2022-12-31T08:03:03.422Z,22.50
2022-12-31T08:05:36.680Z,22.50
2022-12-31T08:08:19.147Z,22.50
2022-12-31T08:11:11.029Z,22.50
2022-12-31T08:13:41.823Z,22.40
2022-12-31T08:16:13.097Z,22.40
2022-12-31T08:18:43.123Z,22.40
2022-12-31T08:21:32.757Z,22.40
2022-12-31T08:24:12.647Z,22.40
2022-12-31T08:26:53.154Z,22.40
2022-12-31T08:29:35.372Z,22.50
2022-12-31T08:32:11.217Z,22.50
2022-12-31T08:34:47.815Z,22.60
2022-12-31T08:37:23.473Z,22.60
2022-12-31T08:40:08.237Z,22.70
2022-12-31T08:42:44.548Z,22.70
2022-12-31T08:45:20.788Z,22.70
2022-12-31T08:48:00.067Z,22.70
2022-12-31T08:50:30.835Z,22.70
2022-12-31T08:52:59.635Z,22.70
2022-12-31T08:55:28.411Z,22.70
2022-12-31T08:58:09.851Z,22.70
2022-12-31T09:00:39.744Z,22.70
2022-12-31T09:03:25.513Z,22.70
2022-12-31T09:06:03.706Z,22.70
2022-12-31T09:08:42.640Z,22.70
2022-12-31T09:11:22.877Z,22.60
2022-12-31T09:14:11.114Z,22.60
2022-12-31T09:16:49.708Z,22.60
2022-12-31T09:19:17.887Z,22.60
2022-12-31T09:21:48.114Z,22.60
2022-12-31T09:24:17.205Z,22.60
2022-12-31T09:26:55.557Z,22.60
2022-12-31T09:29:41.922Z,22.60
2022-12-31T09:32:21.083Z,22.60
2022-12-31T09:34:55.932Z,22.60
2022-12-31T09:37:37.536Z,22.60
2022-12-31T09:40:34.089Z,22.60
2022-12-31T09:43:19.978Z,22.60
2022-12-31T09:46:05.915Z,22.70
2022-12-31T09:49:24.977Z,22.70
2022-12-31T09:52:01.654Z,22.70
2022-12-31T09:54:47.558Z,22.70
2022-12-31T09:57:31.326Z,22.80
2022-12-31T10:00:04.233Z,22.80
2022-12-31T10:02:58.533Z,22.90
2022-12-31T10:05:50.090Z,22.90
2022-12-31T10:08:32.998Z,22.90
2022-12-31T10:11:10.245Z,23.00
2022-12-31T10:13:51.813Z,23.00
2022-12-31T10:16:34.994Z,23.00
2022-12-31T10:19:35.569Z,23.00
2022-12-31T10:22:15.794Z,23.00
2022-12-31T10:25:08.659Z,23.10
2022-12-31T10:27:50.005Z,23.10
2022-12-31T10:30:20.331Z,23.10
2022-12-31T10:33:00.549Z,23.20
2022-12-31T10:35:37.010Z,23.20
2022-12-31T10:38:16.241Z,23.30
2022-12-31T10:41:24.375Z,23.30
2022-12-31T10:44:27.840Z,23.40
2022-12-31T10:47:43.684Z,23.50
2022-12-31T10:50:50.039Z,23.60
2022-12-31T10:53:59.040Z,23.60
2022-12-31T10:57:17.851Z,23.70
2022-12-31T11:00:12.622Z,23.80
2022-12-31T11:03:12.412Z,23.90
2022-12-31T11:06:35.361Z,24.00
2022-12-31T11:09:40.826Z,24.10
2022-12-31T11:12:37.492Z,24.10
2022-12-31T11:15:26.729Z,24.20
2022-12-31T11:18:04.337Z,24.30
2022-12-31T11:21:07.536Z,24.30
2022-12-31T11:23:44.081Z,24.30
2022-12-31T11:26:26.270Z,24.40
2022-12-31T11:29:15.869Z,24.40
2022-12-31T11:32:02.578Z,24.40
2022-12-31T11:34:53.126Z,24.40
2022-12-31T11:37:35.012Z,24.50
2022-12-31T11:40:21.588Z,24.50
2022-12-31T11:42:59.052Z,24.50
2022-12-31T11:45:50.845Z,24.50
2022-12-31T11:48:31.287Z,24.60
2022-12-31T11:51:16.307Z,24.60
2022-12-31T11:54:01.727Z,24.60
2022-12-31T11:56:35.406Z,24.60
2022-12-31T11:59:15.683Z,24.60
2022-12-31T12:01:55.044Z,24.60
2022-12-31T12:04:23.885Z,24.70
2022-12-31T12:06:53.191Z,24.70
2022-12-31T12:09:29.190Z,24.70
2022-12-31T12:12:02.994Z,24.80
2022-12-31T12:14:35.625Z,24.90
2022-12-31T12:17:07.596Z,25.00
2022-12-31T12:19:42.724Z,25.10
2022-12-31T12:22:12.527Z,25.10
2022-12-31T12:24:41.176Z,25.10
2022-12-31T12:27:22.657Z,25.10
2022-12-31T12:29:52.155Z,25.10
2022-12-31T12:32:22.306Z,25.10
2022-12-31T12:34:50.485Z,25.10
2022-12-31T12:37:37.006Z,25.10
2022-12-31T12:40:09.359Z,25.10
2022-12-31T12:42:37.518Z,25.10
2022-12-31T12:45:12.208Z,25.20
2022-12-31T12:47:43.383Z,25.20
2022-12-31T12:50:17.895Z,25.10
2022-12-31T12:53:01.703Z,25.10
2022-12-31T12:55:37.821Z,25.10
2022-12-31T12:58:18.805Z,25.10
2022-12-31T13:00:55.597Z,25.00
2022-12-31T13:04:32.407Z,25.00
2022-12-31T13:06:54.705Z,25.00
2022-12-31T13:09:34.814Z,25.00
2022-12-31T13:12:13.401Z,24.90
2022-12-31T13:14:48.371Z,24.90
2022-12-31T13:17:41.440Z,24.80
2022-12-31T13:20:19.163Z,24.80
2022-12-31T13:22:53.064Z,24.70
2022-12-31T13:25:29.832Z,24.70
2022-12-31T13:28:03.220Z,24.60
2022-12-31T13:30:36.690Z,24.60
2022-12-31T13:33:14.555Z,24.50
2022-12-31T13:35:47.967Z,24.50
2022-12-31T13:38:22.636Z,24.40
2022-12-31T13:40:58.102Z,24.40
2022-12-31T13:43:36.866Z,24.40
2022-12-31T13:46:13.088Z,24.30
2022-12-31T13:48:49.498Z,24.30
2022-12-31T13:51:25.551Z,24.30
2022-12-31T13:54:02.462Z,24.30
2022-12-31T13:56:37.672Z,24.30
2022-12-31T13:59:14.621Z,24.20
2022-12-31T14:01:50.133Z,24.20
2022-12-31T14:04:26.276Z,24.20
2022-12-31T14:06:59.788Z,24.20
2022-12-31T14:09:31.982Z,24.10
2022-12-31T14:12:23.248Z,24.10
2022-12-31T14:15:01.487Z,24.10
2022-12-31T14:17:39.099Z,24.10
2022-12-31T14:20:19.268Z,24.10
2022-12-31T14:22:55.610Z,24.10
2022-12-31T14:25:29.181Z,24.00
2022-12-31T14:27:59.278Z,24.00
2022-12-31T14:30:30.826Z,24.00
2022-12-31T14:33:18.566Z,24.00
2022-12-31T14:36:10.402Z,24.00
2022-12-31T14:38:59.622Z,24.00
2022-12-31T14:41:49.197Z,23.90
2022-12-31T14:44:33.391Z,23.90
2022-12-31T14:47:15.409Z,23.90
2022-12-31T14:49:51.140Z,23.80
2022-12-31T14:52:30.956Z,23.80
2022-12-31T14:55:01.968Z,23.80
2022-12-31T14:58:01.619Z,23.80
2022-12-31T15:00:30.223Z,23.70
2022-12-31T15:03:02.287Z,23.70
2022-12-31T15:05:32.832Z,23.70
2022-12-31T15:08:31.470Z,23.70
2022-12-31T15:11:14.859Z,23.70
2022-12-31T15:14:01.007Z,23.60
2022-12-31T15:16:41.072Z,23.60
2022-12-31T15:19:37.984Z,23.60
2022-12-31T15:22:12.297Z,23.60
2022-12-31T15:24:46.999Z,23.50
2022-12-31T15:27:31.985Z,23.50
2022-12-31T15:30:01.243Z,23.50
2022-12-31T15:32:36.934Z,23.50
2022-12-31T15:35:25.198Z,23.50
2022-12-31T15:38:01.363Z,23.50
2022-12-31T15:40:31.149Z,23.50
2022-12-31T15:43:04.516Z,23.50
2022-12-31T15:45:38.410Z,23.50
2022-12-31T15:48:14.886Z,23.50
2022-12-31T15:50:44.315Z,23.50
2022-12-31T15:53:23.649Z,23.50
2022-12-31T15:55:55.810Z,23.60
2022-12-31T15:58:28.062Z,23.60
2022-12-31T16:01:03.492Z,23.60
2022-12-31T16:03:32.896Z,23.50
2022-12-31T16:06:03.138Z,23.50
2022-12-31T16:08:34.353Z,23.50
2022-12-31T16:11:05.751Z,23.50
2022-12-31T16:13:36.400Z,23.50
2022-12-31T16:16:08.318Z,23.50
2022-12-31T16:18:40.846Z,23.50
2022-12-31T16:21:25.482Z,23.50
2022-12-31T16:23:55.107Z,23.50
2022-12-31T16:26:26.450Z,23.50
2022-12-31T16:28:59.942Z,23.50
2022-12-31T16:31:30.215Z,23.40
2022-12-31T16:34:12.752Z,23.40
2022-12-31T16:36:41.061Z,23.40
2022-12-31T16:39:30.498Z,23.40
2022-12-31T16:42:20.556Z,23.40
2022-12-31T16:44:49.062Z,23.40
2022-12-31T16:47:21.167Z,23.40
2022-12-31T16:49:54.239Z,23.40
2022-12-31T16:52:29.198Z,23.40
2022-12-31T16:54:58.326Z,23.40
2022-12-31T16:57:32.385Z,23.40
2022-12-31T17:00:06.308Z,23.30
2022-12-31T17:02:39.047Z,23.30
2022-12-31T17:05:20.138Z,23.30
2022-12-31T17:07:48.429Z,23.30
2022-12-31T17:10:22.316Z,23.30
2022-12-31T17:15:45.991Z,23.30
2022-12-31T17:18:20.099Z,23.30
2022-12-31T17:20:49.893Z,23.30
2022-12-31T17:23:24.587Z,23.40
2022-12-31T17:26:00.115Z,23.40
2022-12-31T17:28:34.179Z,23.40
2022-12-31T17:31:03.235Z,23.40
2022-12-31T17:33:32.299Z,23.40
2022-12-31T17:36:23.205Z,23.40
2022-12-31T17:38:51.837Z,23.40
2022-12-31T17:41:28.256Z,23.40
2022-12-31T17:43:58.594Z,23.40
2022-12-31T17:46:27.408Z,23.40
2022-12-31T17:49:00.329Z,23.40
2022-12-31T17:51:28.418Z,23.40
2022-12-31T17:53:56.572Z,23.40
2022-12-31T17:56:24.690Z,23.30
2022-12-31T17:58:54.449Z,23.30
2022-12-31T18:01:24.627Z,23.30
2022-12-31T18:03:52.798Z,23.30
2022-12-31T18:06:20.896Z,23.30
2022-12-31T18:08:48.976Z,23.30
2022-12-31T18:11:19.212Z,23.30
2022-12-31T18:13:47.822Z,23.30
2022-12-31T18:16:17.651Z,23.30
2022-12-31T18:18:47.169Z,23.30
2022-12-31T18:21:19.027Z,23.20
2022-12-31T18:23:48.999Z,23.20
2022-12-31T18:26:19.038Z,23.20
2022-12-31T18:28:47.575Z,23.20
2022-12-31T18:31:18.323Z,23.20
2022-12-31T18:33:48.057Z,23.20
2022-12-31T18:36:18.434Z,23.20
2022-12-31T18:38:46.853Z,23.30
2022-12-31T18:41:19.815Z,23.30
2022-12-31T18:43:49.183Z,23.30
2022-12-31T18:46:22.743Z,23.30
2022-12-31T18:48:52.948Z,23.20
2022-12-31T18:51:31.026Z,23.30
2022-12-31T18:54:00.307Z,23.20
2022-12-31T18:56:29.060Z,23.30
2022-12-31T18:58:57.219Z,23.30
2022-12-31T19:01:30.206Z,23.30
2022-12-31T19:04:01.416Z,23.30
2022-12-31T19:06:30.217Z,23.30
2022-12-31T19:09:00.881Z,23.30
2022-12-31T19:11:29.623Z,23.30
2022-12-31T19:13:57.751Z,23.30
2022-12-31T19:16:26.009Z,23.30
2022-12-31T19:18:54.228Z,23.30
2022-12-31T19:21:24.778Z,23.30
2022-12-31T19:23:52.926Z,23.30
2022-12-31T19:26:23.455Z,23.30
2022-12-31T19:28:52.126Z,23.30
2022-12-31T19:31:20.298Z,23.30
2022-12-31T19:33:48.455Z,23.30
2022-12-31T19:36:18.122Z,23.30
2022-12-31T19:38:48.100Z,23.30
2022-12-31T19:41:18.816Z,23.30
2022-12-31T19:43:47.138Z,23.30
2022-12-31T19:46:15.505Z,23.30
2022-12-31T19:48:43.733Z,23.20
2022-12-31T19:51:15.997Z,23.20
2022-12-31T19:53:44.819Z,23.20
2022-12-31T19:56:16.378Z,23.20
2022-12-31T19:58:44.849Z,23.20
2022-12-31T20:01:19.232Z,23.20
2022-12-31T20:03:47.530Z,23.20
2022-12-31T20:06:16.378Z,23.20
2022-12-31T20:08:44.666Z,23.20
2022-12-31T20:11:17.411Z,23.20
2022-12-31T20:13:47.274Z,23.10
2022-12-31T20:16:17.135Z,23.10
2022-12-31T20:18:46.816Z,23.10
2022-12-31T20:21:17.952Z,23.10
2022-12-31T20:23:46.706Z,23.10
2022-12-31T20:26:16.257Z,23.10
2022-12-31T20:28:44.703Z,23.10
2022-12-31T20:31:15.731Z,23.10
2022-12-31T20:33:44.747Z,23.10
2022-12-31T20:36:14.480Z,23.10
2022-12-31T20:38:42.677Z,23.20
2022-12-31T20:41:12.827Z,23.20
2022-12-31T20:43:42.630Z,23.20
2022-12-31T20:46:15.321Z,23.20
2022-12-31T20:48:44.393Z,23.20
2022-12-31T20:51:12.981Z,23.20
2022-12-31T20:53:41.444Z,23.20
2022-12-31T20:56:10.556Z,23.20
2022-12-31T20:58:38.817Z,23.20
2022-12-31T21:01:10.408Z,23.20
2022-12-31T21:06:29.325Z,23.10
2022-12-31T21:08:58.482Z,23.10
2022-12-31T21:11:44.504Z,23.10
2022-12-31T21:14:12.628Z,23.10
2022-12-31T21:16:42.153Z,23.10
2022-12-31T21:19:10.621Z,23.10
2022-12-31T21:21:38.892Z,23.10
2022-12-31T21:24:07.621Z,23.10
2022-12-31T21:26:35.861Z,23.10
2022-12-31T21:29:04.020Z,23.10
2022-12-31T21:31:32.211Z,23.10
2022-12-31T21:34:01.719Z,23.10
2022-12-31T21:36:29.861Z,23.10
2022-12-31T21:38:58.155Z,23.10
2022-12-31T21:41:43.989Z,23.00
2022-12-31T21:44:12.085Z,23.10
2022-12-31T21:47:00.802Z,23.00
2022-12-31T21:49:30.538Z,23.00
2022-12-31T21:52:16.295Z,23.00
2022-12-31T21:55:01.799Z,23.00
2022-12-31T21:57:37.482Z,23.00
2022-12-31T22:00:42.406Z,23.00
2022-12-31T22:03:27.319Z,23.00
2022-12-31T22:05:59.722Z,23.00
2022-12-31T22:08:29.230Z,23.00
2022-12-31T22:10:57.673Z,23.00
2022-12-31T22:13:25.778Z,23.00
2022-12-31T22:16:00.413Z,23.10
2022-12-31T22:18:34.307Z,23.10
2022-12-31T22:21:05.304Z,23.10
2022-12-31T22:23:34.828Z,23.10
2022-12-31T22:26:03.903Z,23.10
2022-12-31T22:28:40.290Z,23.10
2022-12-31T22:31:09.015Z,23.10
2022-12-31T22:33:37.188Z,23.10
2022-12-31T22:36:08.953Z,23.10
2022-12-31T22:38:37.359Z,23.10
2022-12-31T22:41:08.652Z,23.10
2022-12-31T22:43:38.817Z,23.10
2022-12-31T22:46:09.245Z,23.00
2022-12-31T22:48:37.734Z,23.00
2022-12-31T22:51:08.679Z,23.00
2022-12-31T22:53:38.515Z,23.00
2022-12-31T22:56:07.355Z,23.00
2022-12-31T22:58:36.340Z,23.00
2022-12-31T23:01:06.590Z,22.90
2022-12-31T23:03:35.188Z,22.90
2022-12-31T23:06:03.372Z,22.90
2022-12-31T23:08:33.563Z,22.90
2022-12-31T23:11:00.799Z,22.90
2022-12-31T23:13:50.930Z,22.90
2022-12-31T23:16:37.422Z,22.90
2022-12-31T23:19:23.600Z,22.90
2022-12-31T23:22:09.376Z,22.90
2022-12-31T23:24:39.272Z,22.90
2022-12-31T23:27:08.536Z,22.90
2022-12-31T23:29:45.645Z,22.80
2022-12-31T23:32:16.106Z,22.90
2022-12-31T23:34:45.656Z,22.80
2022-12-31T23:37:14.456Z,22.90
2022-12-31T23:39:44.032Z,22.90
2022-12-31T23:42:12.207Z,22.90
2022-12-31T23:44:40.353Z,22.90
2022-12-31T23:47:08.504Z,22.90
2022-12-31T23:49:36.703Z,22.90
2022-12-31T23:52:05.106Z,22.90
2022-12-31T23:54:33.221Z,23.00
2022-12-31T23:57:02.703Z,23.00
2022-12-31T23:59:30.796Z,23.00
